createdAt,value
2022-10-01T00:02:29.267Z,9.87
2022-10-01T00:04:57.644Z,9.60
2022-10-01T00:07:26.193Z,9.57
2022-10-01T00:09:54.209Z,9.27
2022-10-01T00:12:22.168Z,8.43
2022-10-01T00:14:51.053Z,8.87
2022-10-01T00:17:19.013Z,8.43
2022-10-01T00:19:48.370Z,8.83
2022-10-01T00:22:16.396Z,7.67
2022-10-01T00:24:46.054Z,7.97
2022-10-01T00:27:14.231Z,7.73
2022-10-01T00:29:44.193Z,7.43
2022-10-01T00:32:12.396Z,7.40
2022-10-01T00:34:40.416Z,8.00
2022-10-01T00:37:10.572Z,7.20
2022-10-01T00:39:39.102Z,7.43
2022-10-01T00:42:20.370Z,7.30
2022-10-01T00:44:49.220Z,6.97
2022-10-01T00:47:29.405Z,6.90
2022-10-01T00:50:05.809Z,6.90
2022-10-01T00:52:41.391Z,6.53
2022-10-01T00:55:16.554Z,6.60
2022-10-01T00:57:46.404Z,6.37
2022-10-01T01:00:15.964Z,6.47
2022-10-01T01:02:44.598Z,6.07
2022-10-01T01:05:13.972Z,6.07
2022-10-01T01:07:49.399Z,5.83
2022-10-01T01:10:25.236Z,5.90
2022-10-01T01:13:12.824Z,5.90
2022-10-01T01:15:50.987Z,5.57
2022-10-01T01:18:30.087Z,5.70
2022-10-01T01:21:22.218Z,5.20
2022-10-01T01:24:40.231Z,5.77
2022-10-01T01:27:31.324Z,4.97
2022-10-01T01:30:06.107Z,5.50
2022-10-01T01:32:47.816Z,5.87
2022-10-01T01:35:25.201Z,5.20
2022-10-01T01:38:01.928Z,5.80
2022-10-01T01:40:36.806Z,5.23
2022-10-01T01:43:09.195Z,5.20
2022-10-01T01:45:41.199Z,5.50
2022-10-01T01:48:12.920Z,5.50
2022-10-01T01:50:49.982Z,5.40
2022-10-01T01:53:17.994Z,5.07
2022-10-01T01:55:49.298Z,5.47
2022-10-01T01:58:19.808Z,5.20
2022-10-01T02:00:52.756Z,5.23
2022-10-01T02:03:22.381Z,5.33
2022-10-01T02:06:02.737Z,5.23
2022-10-01T02:08:44.142Z,5.27
2022-10-01T02:11:25.904Z,5.27
2022-10-01T02:14:15.762Z,5.17
2022-10-01T02:16:51.410Z,5.50
2022-10-01T02:19:31.054Z,5.27
2022-10-01T02:22:06.125Z,5.20
2022-10-01T02:24:42.711Z,5.70
2022-10-01T02:27:20.120Z,5.20
2022-10-01T02:29:50.918Z,5.20
2022-10-01T02:32:22.917Z,5.10
2022-10-01T02:34:53.809Z,5.63
2022-10-01T02:37:28.663Z,5.77
2022-10-01T02:40:00.335Z,5.17
2022-10-01T02:42:31.879Z,4.90
2022-10-01T02:45:04.856Z,5.10
2022-10-01T02:47:43.566Z,5.30
2022-10-01T02:50:14.063Z,5.50
2022-10-01T02:52:49.187Z,4.70
2022-10-01T02:55:22.202Z,5.37
2022-10-01T02:57:49.985Z,5.47
2022-10-01T03:00:21.576Z,4.93
2022-10-01T03:02:51.916Z,5.47
2022-10-01T03:05:20.422Z,5.00
2022-10-01T03:07:49.209Z,5.00
2022-10-01T03:10:17.883Z,5.73
2022-10-01T03:12:46.656Z,4.97
2022-10-01T03:15:19.081Z,5.67
2022-10-01T03:17:51.244Z,4.83
2022-10-01T03:20:20.688Z,5.13
2022-10-01T03:22:49.062Z,5.30
2022-10-01T03:25:18.100Z,5.27
2022-10-01T03:27:47.086Z,5.43
2022-10-01T03:30:15.458Z,5.10
2022-10-01T03:32:43.481Z,5.30
2022-10-01T03:35:11.593Z,6.40
2022-10-01T03:37:40.971Z,6.00
2022-10-01T03:40:10.068Z,5.57
2022-10-01T03:42:38.060Z,6.40
2022-10-01T03:45:06.761Z,5.93
2022-10-01T03:47:35.069Z,5.90
2022-10-01T03:50:03.088Z,6.67
2022-10-01T03:52:31.078Z,6.13
2022-10-01T03:55:00.845Z,7.00
2022-10-01T03:57:28.842Z,7.37
2022-10-01T03:59:56.800Z,7.67
2022-10-01T04:02:25.449Z,7.00
2022-10-01T04:04:53.504Z,6.70
2022-10-01T04:07:21.919Z,7.77
2022-10-01T04:09:51.002Z,6.57
2022-10-01T04:12:20.320Z,6.70
2022-10-01T04:14:48.358Z,7.33
2022-10-01T04:17:16.366Z,6.83
2022-10-01T04:19:44.329Z,7.37
2022-10-01T04:22:12.302Z,6.77
2022-10-01T04:24:40.245Z,6.50
2022-10-01T04:27:08.266Z,6.40
2022-10-01T04:29:40.399Z,6.57
2022-10-01T04:32:08.554Z,6.73
2022-10-01T04:34:54.810Z,7.17
2022-10-01T04:37:24.335Z,6.23
2022-10-01T04:39:52.415Z,6.53
2022-10-01T04:42:20.429Z,7.33
2022-10-01T04:44:50.026Z,7.80
2022-10-01T04:47:17.989Z,7.70
2022-10-01T04:49:45.984Z,7.20
2022-10-01T04:52:14.031Z,7.57
2022-10-01T04:54:42.113Z,7.53
2022-10-01T04:57:10.100Z,8.00
2022-10-01T04:59:38.084Z,8.13
2022-10-01T05:02:07.483Z,8.10
2022-10-01T05:04:35.496Z,7.97
2022-10-01T05:07:03.559Z,8.17
2022-10-01T05:09:31.659Z,7.97
2022-10-01T05:11:59.659Z,8.57
2022-10-01T05:14:27.676Z,8.03
2022-10-01T05:16:55.647Z,7.80
2022-10-01T05:19:28.925Z,8.33
2022-10-01T05:21:57.050Z,8.47
2022-10-01T05:24:25.472Z,9.07
2022-10-01T05:26:54.390Z,8.23
2022-10-01T05:29:23.011Z,7.83
2022-10-01T05:31:51.004Z,8.30
2022-10-01T05:34:19.031Z,7.53
2022-10-01T05:36:48.405Z,7.63
2022-10-01T05:39:16.476Z,8.03
2022-10-01T05:41:44.460Z,8.03
2022-10-01T05:44:12.479Z,8.17
2022-10-01T05:46:40.582Z,8.00
2022-10-01T05:49:08.679Z,7.37
2022-10-01T05:51:36.974Z,8.07
2022-10-01T05:54:06.579Z,7.53
2022-10-01T05:56:35.008Z,8.07
2022-10-01T05:59:03.002Z,7.67
2022-10-01T06:01:31.735Z,7.83
2022-10-01T06:04:00.238Z,7.70
2022-10-01T06:06:30.108Z,7.27
2022-10-01T06:08:58.107Z,7.20
2022-10-01T06:11:27.447Z,7.80
2022-10-01T06:13:55.451Z,7.43
2022-10-01T06:16:23.457Z,7.30
2022-10-01T06:18:57.297Z,7.47
2022-10-01T06:21:26.004Z,7.97
2022-10-01T06:23:54.967Z,7.70
2022-10-01T06:26:23.086Z,8.00
2022-10-01T06:28:52.809Z,7.50
2022-10-01T06:31:21.524Z,7.83
2022-10-01T06:33:49.544Z,7.27
2022-10-01T06:36:17.639Z,7.73
2022-10-01T06:38:48.443Z,7.30
2022-10-01T06:41:16.453Z,7.27
2022-10-01T06:43:44.441Z,7.00
2022-10-01T06:46:13.826Z,7.47
2022-10-01T06:48:41.794Z,7.10
2022-10-01T06:51:09.767Z,7.20
2022-10-01T06:53:37.187Z,6.70
2022-10-01T06:56:07.174Z,7.37
2022-10-01T06:58:36.502Z,7.13
2022-10-01T07:01:04.913Z,7.17
2022-10-01T07:03:34.834Z,6.60
2022-10-01T07:06:04.901Z,7.10
2022-10-01T07:08:33.419Z,7.20
2022-10-01T07:11:03.514Z,7.80
2022-10-01T07:13:32.064Z,7.33
2022-10-01T07:16:00.247Z,7.30
2022-10-01T07:18:28.296Z,6.90
2022-10-01T07:20:59.401Z,7.33
2022-10-01T07:23:27.430Z,7.00
2022-10-01T07:25:55.466Z,7.53
2022-10-01T07:28:25.726Z,6.33
2022-10-01T07:31:02.008Z,6.73
2022-10-01T07:33:30.502Z,7.07
2022-10-01T07:36:03.569Z,6.77
2022-10-01T07:38:33.312Z,6.60
2022-10-01T07:41:02.947Z,6.50
2022-10-01T07:43:32.268Z,6.73
2022-10-01T07:46:01.950Z,6.20
2022-10-01T07:48:31.005Z,6.70
2022-10-01T07:50:59.002Z,6.70
2022-10-01T07:53:28.709Z,6.67
2022-10-01T07:55:56.777Z,7.47
2022-10-01T07:58:24.747Z,7.70
2022-10-01T08:00:56.002Z,7.57
2022-10-01T08:03:24.362Z,7.40
2022-10-01T08:05:54.574Z,7.87
2022-10-01T08:08:22.549Z,7.40
2022-10-01T08:10:51.889Z,7.87
2022-10-01T08:13:24.619Z,8.27
2022-10-01T08:15:54.769Z,8.47
2022-10-01T08:18:24.347Z,7.90
2022-10-01T08:20:52.531Z,8.50
2022-10-01T08:23:20.492Z,7.90
2022-10-01T08:25:49.338Z,8.03
2022-10-01T08:28:19.467Z,8.37
2022-10-01T08:30:47.470Z,8.87
2022-10-01T08:33:15.823Z,8.00
2022-10-01T08:35:44.664Z,8.43
2022-10-01T08:38:14.204Z,8.43
2022-10-01T08:40:50.058Z,8.30
2022-10-01T08:43:32.605Z,8.00
2022-10-01T08:46:05.691Z,7.30
2022-10-01T08:48:57.180Z,7.43
2022-10-01T08:51:36.137Z,7.40
2022-10-01T08:54:19.818Z,6.60
2022-10-01T08:56:48.888Z,6.57
2022-10-01T08:59:39.057Z,6.00
2022-10-01T09:02:21.933Z,6.17
2022-10-01T09:05:00.316Z,6.07
2022-10-01T09:07:50.537Z,6.27
2022-10-01T09:10:35.808Z,6.37
2022-10-01T09:13:32.413Z,5.93
2022-10-01T09:16:13.076Z,6.47
2022-10-01T09:19:01.225Z,6.07
2022-10-01T09:21:48.726Z,5.90
2022-10-01T09:24:27.997Z,5.80
2022-10-01T09:26:56.209Z,6.40
2022-10-01T09:29:31.052Z,6.10
2022-10-01T09:32:03.981Z,6.00
2022-10-01T09:34:38.857Z,6.63
2022-10-01T09:37:19.338Z,7.17
2022-10-01T09:40:04.721Z,6.30
2022-10-01T09:42:33.148Z,6.60
2022-10-01T09:45:01.153Z,6.73
2022-10-01T09:47:34.455Z,6.47
2022-10-01T09:50:07.182Z,6.90
2022-10-01T09:52:39.676Z,6.37
2022-10-01T09:55:23.844Z,6.83
2022-10-01T09:58:01.025Z,6.13
2022-10-01T10:00:29.483Z,7.60
2022-10-01T10:02:59.099Z,5.90
2022-10-01T10:05:29.385Z,5.50
2022-10-01T10:08:04.087Z,5.00
2022-10-01T10:10:35.704Z,4.73
2022-10-01T10:13:31.656Z,4.60
2022-10-01T10:16:01.237Z,4.67
2022-10-01T10:18:34.564Z,4.03
2022-10-01T10:21:07.945Z,3.80
2022-10-01T10:23:46.858Z,3.10
2022-10-01T10:26:21.937Z,3.00
2022-10-01T10:28:50.010Z,2.87
2022-10-01T10:31:22.796Z,3.83
2022-10-01T10:33:58.730Z,2.90
2022-10-01T10:36:31.006Z,2.83
2022-10-01T10:39:00.735Z,3.03
2022-10-01T10:41:31.365Z,2.53
2022-10-01T10:44:06.245Z,2.40
2022-10-01T10:46:42.775Z,2.60
2022-10-01T10:49:22.406Z,2.27
2022-10-01T10:51:54.293Z,2.30
2022-10-01T10:54:29.189Z,2.63
2022-10-01T10:57:02.296Z,3.23
2022-10-01T10:59:35.001Z,2.60
2022-10-01T11:02:06.931Z,2.40
2022-10-01T11:04:44.192Z,2.80
2022-10-01T11:07:19.689Z,2.70
2022-10-01T11:10:33.666Z,2.70
2022-10-01T11:13:28.210Z,2.50
2022-10-01T11:16:24.205Z,2.70
2022-10-01T11:19:15.115Z,2.70
2022-10-01T11:22:08.327Z,2.23
2022-10-01T11:25:00.899Z,2.77
2022-10-01T11:27:45.592Z,2.40
2022-10-01T11:30:21.865Z,2.00
2022-10-01T11:33:04.641Z,4.27
2022-10-01T11:35:55.358Z,2.50
2022-10-01T11:38:49.313Z,2.20
2022-10-01T11:41:34.872Z,1.77
2022-10-01T11:44:12.307Z,2.80
2022-10-01T11:46:54.318Z,2.80
2022-10-01T11:49:44.573Z,1.57
2022-10-01T11:52:27.806Z,1.20
2022-10-01T11:55:30.131Z,1.67
2022-10-01T11:58:24.216Z,1.70
2022-10-01T12:01:04.705Z,1.83
2022-10-01T12:03:56.049Z,1.40
2022-10-01T12:06:34.045Z,1.50
2022-10-01T12:09:14.181Z,1.53
2022-10-01T12:11:53.928Z,1.83
2022-10-01T12:14:31.348Z,1.80
2022-10-01T12:17:12.140Z,1.50
2022-10-01T12:19:48.184Z,1.33
2022-10-01T12:22:25.614Z,1.20
2022-10-01T12:24:54.239Z,1.20
2022-10-01T12:27:47.801Z,1.23
2022-10-01T12:30:21.434Z,1.10
2022-10-01T12:33:11.861Z,1.10
2022-10-01T12:35:58.319Z,1.03
2022-10-01T12:38:54.157Z,1.20
2022-10-01T12:41:43.156Z,1.10
2022-10-01T12:44:35.105Z,1.20
2022-10-01T12:47:24.971Z,1.00
2022-10-01T12:50:10.705Z,1.10
2022-10-01T12:52:51.409Z,1.00
2022-10-01T12:55:37.085Z,1.27
2022-10-01T12:58:20.040Z,1.10
2022-10-01T13:01:05.234Z,1.73
2022-10-01T13:04:11.043Z,1.40
2022-10-01T13:07:04.753Z,1.20
2022-10-01T13:09:49.109Z,0.90
2022-10-01T13:12:38.289Z,0.90
2022-10-01T13:15:14.542Z,0.90
2022-10-01T13:17:53.722Z,0.90
2022-10-01T13:20:31.892Z,0.90
2022-10-01T13:23:09.002Z,0.90
2022-10-01T13:25:47.653Z,0.80
2022-10-01T13:28:25.834Z,0.90
2022-10-01T13:31:00.690Z,0.80
2022-10-01T13:33:32.600Z,1.40
2022-10-01T13:36:03.479Z,1.70
2022-10-01T13:38:42.536Z,0.80
2022-10-01T13:41:23.423Z,0.80
2022-10-01T13:43:58.250Z,0.90
2022-10-01T13:46:31.460Z,0.70
2022-10-01T13:49:17.800Z,1.10
2022-10-01T13:51:47.374Z,1.23
2022-10-01T13:54:28.405Z,1.40
2022-10-01T13:56:56.505Z,0.90
2022-10-01T13:59:35.698Z,1.00
2022-10-01T14:02:04.701Z,1.30
2022-10-01T14:04:41.737Z,1.40
2022-10-01T14:07:18.836Z,1.02
2022-10-01T14:09:51.284Z,0.90
2022-10-01T14:12:43.205Z,0.80
2022-10-01T14:15:36.829Z,0.70
2022-10-01T14:18:12.368Z,0.77
2022-10-01T14:20:58.817Z,0.82
2022-10-01T14:23:37.690Z,0.70
2022-10-01T14:26:18.088Z,0.70
2022-10-01T14:29:11.145Z,1.05
2022-10-01T14:31:53.027Z,1.13
2022-10-01T14:34:52.284Z,0.70
2022-10-01T14:37:22.571Z,0.80
2022-10-01T14:40:03.246Z,0.70
2022-10-01T14:42:31.263Z,0.80
2022-10-01T14:44:59.320Z,0.90
2022-10-01T14:47:34.858Z,1.00
2022-10-01T14:50:11.777Z,0.70
2022-10-01T14:52:50.991Z,0.80
2022-10-01T14:55:24.418Z,1.70
2022-10-01T14:57:56.506Z,0.88
2022-10-01T15:00:28.174Z,0.80
2022-10-01T15:03:12.547Z,0.60
2022-10-01T15:05:40.604Z,0.80
2022-10-01T15:08:15.593Z,0.90
2022-10-01T15:10:50.815Z,0.90
2022-10-01T15:13:27.287Z,0.90
2022-10-01T15:15:56.930Z,0.80
2022-10-01T15:18:25.850Z,0.80
2022-10-01T15:20:58.740Z,1.00
2022-10-01T15:23:31.522Z,0.68
2022-10-01T15:26:03.706Z,1.05
2022-10-01T15:28:34.446Z,0.98
2022-10-01T15:31:06.002Z,1.15
2022-10-01T15:33:37.227Z,1.10
2022-10-01T15:36:08.459Z,1.10
2022-10-01T15:38:38.610Z,0.90
2022-10-01T15:41:30.572Z,1.02
2022-10-01T15:43:58.363Z,1.00
2022-10-01T15:46:33.175Z,1.00
2022-10-01T15:49:25.970Z,0.90
2022-10-01T15:52:17.606Z,1.15
2022-10-01T15:54:48.437Z,1.00
2022-10-01T15:57:22.290Z,1.20
2022-10-01T15:59:54.167Z,1.10
2022-10-01T16:02:27.203Z,1.30
2022-10-01T16:04:56.606Z,1.10
2022-10-01T16:07:33.432Z,1.30
2022-10-01T16:10:27.571Z,1.02
2022-10-01T16:12:55.693Z,1.17
2022-10-01T16:15:29.570Z,1.20
2022-10-01T16:18:02.285Z,1.30
2022-10-01T16:20:42.882Z,1.20
2022-10-01T16:23:37.719Z,1.33
2022-10-01T16:26:32.246Z,1.20
2022-10-01T16:29:04.042Z,1.43
2022-10-01T16:31:32.935Z,1.40
2022-10-01T16:34:00.932Z,1.30
2022-10-01T16:36:28.891Z,1.70
2022-10-01T16:38:57.371Z,1.53
2022-10-01T16:41:28.350Z,1.43
2022-10-01T16:43:59.096Z,1.33
2022-10-01T16:46:27.304Z,1.40
2022-10-01T16:48:55.272Z,1.40
2022-10-01T16:51:23.229Z,1.37
2022-10-01T16:53:52.299Z,1.30
2022-10-01T16:56:24.833Z,1.27
2022-10-01T16:58:56.383Z,1.40
2022-10-01T17:01:24.457Z,1.20
2022-10-01T17:03:52.505Z,1.70
2022-10-01T17:06:20.482Z,1.30
2022-10-01T17:08:48.489Z,2.20
2022-10-01T17:11:16.508Z,1.90
2022-10-01T17:13:44.539Z,1.37
2022-10-01T17:16:13.996Z,1.90
2022-10-01T17:18:43.698Z,1.60
2022-10-01T17:21:12.001Z,1.63
2022-10-01T17:23:40.021Z,1.40
2022-10-01T17:26:09.427Z,1.60
2022-10-01T17:28:37.439Z,1.47
2022-10-01T17:31:08.452Z,1.30
2022-10-01T17:33:38.974Z,1.60
2022-10-01T17:36:09.141Z,2.20
2022-10-01T17:38:37.308Z,2.60
2022-10-01T17:41:05.623Z,2.50
2022-10-01T17:43:33.729Z,2.70
2022-10-01T17:46:02.690Z,3.13
2022-10-01T17:48:31.226Z,2.73
2022-10-01T17:51:03.391Z,2.67
2022-10-01T17:53:36.117Z,2.63
2022-10-01T17:56:09.794Z,3.20
2022-10-01T17:58:40.601Z,3.37
2022-10-01T18:01:14.950Z,3.00
2022-10-01T18:03:43.069Z,3.00
2022-10-01T18:06:15.262Z,2.43
2022-10-01T18:08:58.709Z,2.20
2022-10-01T18:11:29.081Z,2.33
2022-10-01T18:13:57.160Z,2.10
2022-10-01T18:16:26.788Z,2.00
2022-10-01T18:21:51.494Z,1.80
2022-10-01T18:24:19.648Z,2.03
2022-10-01T18:26:47.898Z,1.90
2022-10-01T18:29:21.463Z,2.10
2022-10-01T18:31:56.000Z,2.10
2022-10-01T18:34:33.359Z,2.10
2022-10-01T18:37:09.229Z,2.10
2022-10-01T18:39:44.104Z,1.90
2022-10-01T18:42:21.285Z,1.83
2022-10-01T18:44:56.346Z,1.77
2022-10-01T18:47:42.645Z,2.00
2022-10-01T18:50:29.236Z,1.90
2022-10-01T18:53:22.109Z,2.47
2022-10-01T18:56:19.603Z,2.30
2022-10-01T18:59:30.879Z,2.50
2022-10-01T19:02:36.947Z,2.77
2022-10-01T19:06:03.571Z,2.90
2022-10-01T19:09:12.939Z,2.20
2022-10-01T19:11:54.172Z,2.50
2022-10-01T19:14:44.766Z,2.20
2022-10-01T19:17:36.376Z,2.40
2022-10-01T19:20:37.625Z,2.43
2022-10-01T19:23:25.005Z,2.20
2022-10-01T19:26:04.584Z,2.50
2022-10-01T19:28:57.852Z,2.03
2022-10-01T19:31:37.307Z,2.43
2022-10-01T19:34:13.899Z,1.60
2022-10-01T19:36:51.473Z,1.80
2022-10-01T19:39:25.141Z,1.83
2022-10-01T19:42:00.316Z,1.70
2022-10-01T19:44:38.141Z,2.10
2022-10-01T19:47:19.504Z,1.90
2022-10-01T19:49:50.152Z,1.40
2022-10-01T19:52:21.131Z,1.50
2022-10-01T19:54:58.701Z,1.57
2022-10-01T19:57:34.786Z,1.70
2022-10-01T20:00:10.330Z,1.70
2022-10-01T20:02:51.338Z,1.80
2022-10-01T20:05:29.189Z,2.07
2022-10-01T20:08:08.788Z,1.53
2022-10-01T20:10:44.846Z,1.57
2022-10-01T20:13:39.888Z,1.40
2022-10-01T20:16:23.063Z,1.60
2022-10-01T20:19:01.165Z,1.70
2022-10-01T20:21:50.385Z,1.30
2022-10-01T20:24:53.047Z,1.63
2022-10-01T20:27:39.037Z,1.37
2022-10-01T20:30:12.969Z,1.40
2022-10-01T20:32:51.734Z,2.30
2022-10-01T20:35:31.197Z,1.50
2022-10-01T20:38:07.883Z,1.60
2022-10-01T20:40:44.856Z,1.60
2022-10-01T20:43:18.912Z,1.67
2022-10-01T20:45:54.606Z,1.70
2022-10-01T20:48:28.764Z,1.70
2022-10-01T20:51:08.237Z,1.87
2022-10-01T20:53:45.998Z,2.00
2022-10-01T20:56:19.927Z,1.90
2022-10-01T20:58:53.859Z,1.70
2022-10-01T21:01:26.141Z,1.70
2022-10-01T21:04:02.607Z,1.70
2022-10-01T21:06:38.255Z,1.70
2022-10-01T21:09:18.450Z,1.50
2022-10-01T21:11:54.773Z,2.70
2022-10-01T21:14:29.817Z,2.00
2022-10-01T21:17:24.491Z,2.40
2022-10-01T21:20:24.674Z,2.23
2022-10-01T21:23:11.365Z,2.10
2022-10-01T21:25:59.298Z,2.47
2022-10-01T21:28:57.250Z,2.13
2022-10-01T21:31:44.895Z,2.30
2022-10-01T21:34:24.181Z,2.37
2022-10-01T21:37:06.128Z,2.20
2022-10-01T21:39:46.914Z,2.10
2022-10-01T21:42:19.079Z,2.00
2022-10-01T21:45:24.633Z,2.37
2022-10-01T21:48:17.214Z,1.70
2022-10-01T21:50:55.102Z,1.90
2022-10-01T21:53:53.829Z,2.00
2022-10-01T21:56:46.117Z,2.47
2022-10-01T21:59:35.557Z,2.07
2022-10-01T22:02:20.531Z,2.53
2022-10-01T22:04:57.477Z,1.70
2022-10-01T22:07:35.348Z,1.70
2022-10-01T22:10:16.159Z,2.27
2022-10-01T22:12:50.770Z,2.60
2022-10-01T22:15:28.414Z,3.50
2022-10-01T22:17:58.814Z,2.97
2022-10-01T22:20:31.780Z,3.10
2022-10-01T22:23:08.158Z,3.00
2022-10-01T22:25:44.406Z,3.17
2022-10-01T22:28:21.461Z,4.10
2022-10-01T22:30:54.848Z,5.23
2022-10-01T22:33:33.594Z,6.53
2022-10-01T22:36:09.974Z,6.57
2022-10-01T22:38:46.894Z,6.60
2022-10-01T22:41:25.351Z,5.70
2022-10-01T22:43:53.596Z,5.30
2022-10-01T22:47:05.887Z,4.23
2022-10-01T22:49:53.065Z,4.00
2022-10-01T22:52:36.452Z,4.60
2022-10-01T22:55:22.304Z,4.03
2022-10-01T22:58:25.124Z,5.37
2022-10-01T23:01:11.117Z,3.30
2022-10-01T23:03:57.070Z,3.30
2022-10-01T23:06:39.239Z,3.00
2022-10-01T23:09:16.420Z,2.77
2022-10-01T23:11:56.362Z,2.70
2022-10-01T23:14:49.728Z,2.63
2022-10-01T23:17:26.589Z,2.60
2022-10-01T23:20:14.910Z,2.40
2022-10-01T23:23:17.287Z,2.80
2022-10-01T23:26:11.180Z,2.50
2022-10-01T23:29:01.302Z,2.77
2022-10-01T23:31:40.471Z,2.80
2022-10-01T23:34:28.136Z,2.80
2022-10-01T23:37:16.067Z,3.00
2022-10-01T23:39:52.043Z,2.60
2022-10-01T23:42:35.788Z,3.10
2022-10-01T23:45:19.890Z,3.23
2022-10-01T23:47:59.439Z,3.27
2022-10-01T23:50:36.046Z,3.40
2022-10-01T23:53:16.165Z,3.70
2022-10-01T23:56:10.826Z,3.13
2022-10-01T23:58:49.804Z,3.03
